sensor_id;sensor_type;location;lat;lon;timestamp;temperature;humidity
2749;DHT22;1382;52.142;11.618;2023-02-11T00:01:19;7.40;55.70
2749;DHT22;1382;52.142;11.618;2023-02-11T00:03:46;7.40;55.80
2749;DHT22;1382;52.142;11.618;2023-02-11T00:06:13;7.40;55.90
2749;DHT22;1382;52.142;11.618;2023-02-11T00:08:40;7.40;56.00
2749;DHT22;1382;52.142;11.618;2023-02-11T00:11:09;7.40;56.20
2749;DHT22;1382;52.142;11.618;2023-02-11T00:13:37;7.40;56.20
2749;DHT22;1382;52.142;11.618;2023-02-11T00:16:05;7.40;56.30
2749;DHT22;1382;52.142;11.618;2023-02-11T00:18:34;7.40;56.40
2749;DHT22;1382;52.142;11.618;2023-02-11T00:21:05;7.40;56.50
2749;DHT22;1382;52.142;11.618;2023-02-11T00:23:31;7.40;56.60
2749;DHT22;1382;52.142;11.618;2023-02-11T00:25:58;7.60;56.90
2749;DHT22;1382;52.142;11.618;2023-02-11T00:28:25;7.40;56.70
2749;DHT22;1382;52.142;11.618;2023-02-11T00:30:55;7.40;56.80
2749;DHT22;1382;52.142;11.618;2023-02-11T00:33:23;7.50;57.00
2749;DHT22;1382;52.142;11.618;2023-02-11T00:35:51;7.50;57.00
2749;DHT22;1382;52.142;11.618;2023-02-11T00:38:18;7.50;57.10
2749;DHT22;1382;52.142;11.618;2023-02-11T00:40:45;7.50;57.10
2749;DHT22;1382;52.142;11.618;2023-02-11T00:43:12;7.50;57.10
2749;DHT22;1382;52.142;11.618;2023-02-11T00:45:39;7.60;57.20
2749;DHT22;1382;52.142;11.618;2023-02-11T00:48:05;7.60;57.20
2749;DHT22;1382;52.142;11.618;2023-02-11T00:50:32;7.60;57.30
2749;DHT22;1382;52.142;11.618;2023-02-11T00:53:00;7.60;57.30
2749;DHT22;1382;52.142;11.618;2023-02-11T00:55:27;7.60;57.20
2749;DHT22;1382;52.142;11.618;2023-02-11T00:57:53;7.70;57.30
2749;DHT22;1382;52.142;11.618;2023-02-11T01:00:20;7.70;57.30
2749;DHT22;1382;52.142;11.618;2023-02-11T01:02:47;7.80;57.40
2749;DHT22;1382;52.142;11.618;2023-02-11T01:05:14;7.80;57.40
2749;DHT22;1382;52.142;11.618;2023-02-11T01:07:40;7.80;57.40
2749;DHT22;1382;52.142;11.618;2023-02-11T01:10:09;7.80;57.30
2749;DHT22;1382;52.142;11.618;2023-02-11T01:12:36;7.90;57.50
2749;DHT22;1382;52.142;11.618;2023-02-11T01:15:05;7.90;57.40
2749;DHT22;1382;52.142;11.618;2023-02-11T01:17:32;7.90;57.40
2749;DHT22;1382;52.142;11.618;2023-02-11T01:20:01;7.90;57.30
2749;DHT22;1382;52.142;11.618;2023-02-11T01:22:27;7.90;57.40
2749;DHT22;1382;52.142;11.618;2023-02-11T01:24:54;8.00;57.40
2749;DHT22;1382;52.142;11.618;2023-02-11T01:27:22;8.00;57.30
2749;DHT22;1382;52.142;11.618;2023-02-11T01:29:49;8.20;57.50
2749;DHT22;1382;52.142;11.618;2023-02-11T01:32:17;8.00;57.30
2749;DHT22;1382;52.142;11.618;2023-02-11T01:34:44;8.00;57.30
2749;DHT22;1382;52.142;11.618;2023-02-11T01:37:10;8.00;57.30
2749;DHT22;1382;52.142;11.618;2023-02-11T01:39:37;8.00;57.30
2749;DHT22;1382;52.142;11.618;2023-02-11T01:42:04;8.10;57.40
2749;DHT22;1382;52.142;11.618;2023-02-11T01:44:34;8.10;57.30
2749;DHT22;1382;52.142;11.618;2023-02-11T01:47:02;8.10;57.30
2749;DHT22;1382;52.142;11.618;2023-02-11T01:49:32;8.10;57.30
2749;DHT22;1382;52.142;11.618;2023-02-11T01:52:02;8.10;57.30
2749;DHT22;1382;52.142;11.618;2023-02-11T01:54:33;8.10;57.30
2749;DHT22;1382;52.142;11.618;2023-02-11T01:57:01;8.10;57.30
2749;DHT22;1382;52.142;11.618;2023-02-11T01:59:35;8.20;57.30
2749;DHT22;1382;52.142;11.618;2023-02-11T02:02:07;8.20;57.40
2749;DHT22;1382;52.142;11.618;2023-02-11T02:04:41;8.20;57.30
2749;DHT22;1382;52.142;11.618;2023-02-11T02:07:12;8.30;57.20
2749;DHT22;1382;52.142;11.618;2023-02-11T02:09:45;8.30;57.30
2749;DHT22;1382;52.142;11.618;2023-02-11T02:12:14;8.30;57.20
2749;DHT22;1382;52.142;11.618;2023-02-11T02:14:42;8.30;57.40
2749;DHT22;1382;52.142;11.618;2023-02-11T02:17:13;8.30;57.30
2749;DHT22;1382;52.142;11.618;2023-02-11T02:20:10;8.30;57.20
2749;DHT22;1382;52.142;11.618;2023-02-11T02:23:30;8.40;57.20
2749;DHT22;1382;52.142;11.618;2023-02-11T02:29:21;8.40;57.30
2749;DHT22;1382;52.142;11.618;2023-02-11T02:32:19;8.30;57.20
2749;DHT22;1382;52.142;11.618;2023-02-11T02:34:51;8.30;57.40
2749;DHT22;1382;52.142;11.618;2023-02-11T02:37:23;8.30;57.40
2749;DHT22;1382;52.142;11.618;2023-02-11T02:39:54;8.40;57.40
2749;DHT22;1382;52.142;11.618;2023-02-11T02:42:22;8.40;58.00
2749;DHT22;1382;52.142;11.618;2023-02-11T02:44:51;8.40;57.40
2749;DHT22;1382;52.142;11.618;2023-02-11T02:47:19;8.40;57.30
2749;DHT22;1382;52.142;11.618;2023-02-11T02:49:46;8.40;57.30
2749;DHT22;1382;52.142;11.618;2023-02-11T02:52:20;8.40;57.30
2749;DHT22;1382;52.142;11.618;2023-02-11T02:55:07;8.40;57.60
2749;DHT22;1382;52.142;11.618;2023-02-11T02:57:39;8.50;57.80
2749;DHT22;1382;52.142;11.618;2023-02-11T03:00:20;8.40;58.00
2749;DHT22;1382;52.142;11.618;2023-02-11T03:03:00;8.40;58.10
2749;DHT22;1382;52.142;11.618;2023-02-11T03:05:39;8.50;58.20
2749;DHT22;1382;52.142;11.618;2023-02-11T03:08:15;8.40;58.20
2749;DHT22;1382;52.142;11.618;2023-02-11T03:10:45;8.40;58.20
2749;DHT22;1382;52.142;11.618;2023-02-11T03:13:12;8.50;58.40
2749;DHT22;1382;52.142;11.618;2023-02-11T03:15:43;8.50;58.40
2749;DHT22;1382;52.142;11.618;2023-02-11T03:18:15;8.60;58.80
2749;DHT22;1382;52.142;11.618;2023-02-11T03:20:44;8.50;58.40
2749;DHT22;1382;52.142;11.618;2023-02-11T03:23:17;8.50;59.00
2749;DHT22;1382;52.142;11.618;2023-02-11T03:25:49;8.50;58.50
2749;DHT22;1382;52.142;11.618;2023-02-11T03:28:24;8.50;58.70
2749;DHT22;1382;52.142;11.618;2023-02-11T03:30:54;8.50;58.70
2749;DHT22;1382;52.142;11.618;2023-02-11T03:33:26;8.60;59.10
2749;DHT22;1382;52.142;11.618;2023-02-11T03:35:57;8.60;59.00
2749;DHT22;1382;52.142;11.618;2023-02-11T03:38:29;8.60;59.00
2749;DHT22;1382;52.142;11.618;2023-02-11T03:40:58;8.60;59.10
2749;DHT22;1382;52.142;11.618;2023-02-11T03:43:31;8.60;59.30
2749;DHT22;1382;52.142;11.618;2023-02-11T03:45:59;8.60;59.30
2749;DHT22;1382;52.142;11.618;2023-02-11T03:48:30;8.60;59.00
2749;DHT22;1382;52.142;11.618;2023-02-11T03:51:00;8.60;59.10
2749;DHT22;1382;52.142;11.618;2023-02-11T03:53:28;8.60;59.10
2749;DHT22;1382;52.142;11.618;2023-02-11T03:55:55;8.60;59.40
2749;DHT22;1382;52.142;11.618;2023-02-11T03:58:23;8.60;59.30
2749;DHT22;1382;52.142;11.618;2023-02-11T04:00:50;8.60;59.30
2749;DHT22;1382;52.142;11.618;2023-02-11T04:03:17;8.70;59.20
2749;DHT22;1382;52.142;11.618;2023-02-11T04:05:45;8.70;59.30
2749;DHT22;1382;52.142;11.618;2023-02-11T04:08:11;8.70;59.50
2749;DHT22;1382;52.142;11.618;2023-02-11T04:10:38;8.70;59.20
2749;DHT22;1382;52.142;11.618;2023-02-11T04:13:05;8.70;59.50
2749;DHT22;1382;52.142;11.618;2023-02-11T04:15:32;8.70;59.60
2749;DHT22;1382;52.142;11.618;2023-02-11T04:17:58;8.80;59.80
2749;DHT22;1382;52.142;11.618;2023-02-11T04:20:25;8.80;59.90
2749;DHT22;1382;52.142;11.618;2023-02-11T04:22:53;8.80;60.10
2749;DHT22;1382;52.142;11.618;2023-02-11T04:25:20;8.80;59.90
2749;DHT22;1382;52.142;11.618;2023-02-11T04:27:46;8.80;59.60
2749;DHT22;1382;52.142;11.618;2023-02-11T04:30:13;8.90;59.80
2749;DHT22;1382;52.142;11.618;2023-02-11T04:32:40;8.80;59.90
2749;DHT22;1382;52.142;11.618;2023-02-11T04:35:07;8.80;59.70
2749;DHT22;1382;52.142;11.618;2023-02-11T04:37:34;8.80;60.40
2749;DHT22;1382;52.142;11.618;2023-02-11T04:40:02;8.90;59.90
2749;DHT22;1382;52.142;11.618;2023-02-11T04:42:29;8.90;59.70
2749;DHT22;1382;52.142;11.618;2023-02-11T04:44:56;8.90;59.70
2749;DHT22;1382;52.142;11.618;2023-02-11T04:47:23;8.90;59.90
2749;DHT22;1382;52.142;11.618;2023-02-11T04:49:49;8.90;59.90
2749;DHT22;1382;52.142;11.618;2023-02-11T04:52:16;8.90;59.80
2749;DHT22;1382;52.142;11.618;2023-02-11T04:54:43;8.90;59.80
2749;DHT22;1382;52.142;11.618;2023-02-11T04:57:11;8.90;59.90
2749;DHT22;1382;52.142;11.618;2023-02-11T04:59:38;8.90;59.60
2749;DHT22;1382;52.142;11.618;2023-02-11T05:02:05;8.90;59.90
2749;DHT22;1382;52.142;11.618;2023-02-11T05:04:32;8.90;59.90
2749;DHT22;1382;52.142;11.618;2023-02-11T05:06:59;9.00;60.20
2749;DHT22;1382;52.142;11.618;2023-02-11T05:09:25;9.00;60.30
2749;DHT22;1382;52.142;11.618;2023-02-11T05:11:52;9.00;60.20
2749;DHT22;1382;52.142;11.618;2023-02-11T05:14:20;8.90;60.00
2749;DHT22;1382;52.142;11.618;2023-02-11T05:16:46;9.00;60.30
2749;DHT22;1382;52.142;11.618;2023-02-11T05:19:13;9.00;60.50
2749;DHT22;1382;52.142;11.618;2023-02-11T05:21:40;9.00;60.30
2749;DHT22;1382;52.142;11.618;2023-02-11T05:24:26;9.00;60.50
2749;DHT22;1382;52.142;11.618;2023-02-11T05:26:52;9.00;60.80
2749;DHT22;1382;52.142;11.618;2023-02-11T05:29:20;9.00;60.70
2749;DHT22;1382;52.142;11.618;2023-02-11T05:31:47;9.00;60.90
2749;DHT22;1382;52.142;11.618;2023-02-11T05:34:14;9.00;60.80
2749;DHT22;1382;52.142;11.618;2023-02-11T05:36:40;9.00;60.50
2749;DHT22;1382;52.142;11.618;2023-02-11T05:39:07;9.00;60.40
2749;DHT22;1382;52.142;11.618;2023-02-11T05:41:34;9.00;60.60
2749;DHT22;1382;52.142;11.618;2023-02-11T05:44:00;9.00;60.80
2749;DHT22;1382;52.142;11.618;2023-02-11T05:46:28;9.10;61.00
2749;DHT22;1382;52.142;11.618;2023-02-11T05:48:55;9.10;61.00
2749;DHT22;1382;52.142;11.618;2023-02-11T05:51:22;9.10;61.00
2749;DHT22;1382;52.142;11.618;2023-02-11T05:53:49;9.10;60.90
2749;DHT22;1382;52.142;11.618;2023-02-11T05:56:15;9.10;61.10
2749;DHT22;1382;52.142;11.618;2023-02-11T05:58:42;9.10;61.10
2749;DHT22;1382;52.142;11.618;2023-02-11T06:01:09;9.10;60.80
2749;DHT22;1382;52.142;11.618;2023-02-11T06:03:37;9.10;61.00
2749;DHT22;1382;52.142;11.618;2023-02-11T06:06:04;9.10;61.10
2749;DHT22;1382;52.142;11.618;2023-02-11T06:08:34;9.10;62.00
2749;DHT22;1382;52.142;11.618;2023-02-11T06:11:04;9.10;61.20
2749;DHT22;1382;52.142;11.618;2023-02-11T06:13:31;9.10;61.40
2749;DHT22;1382;52.142;11.618;2023-02-11T06:15:58;9.10;61.50
2749;DHT22;1382;52.142;11.618;2023-02-11T06:18:25;9.10;61.70
2749;DHT22;1382;52.142;11.618;2023-02-11T06:20:53;9.10;61.70
2749;DHT22;1382;52.142;11.618;2023-02-11T06:23:21;9.10;61.80
2749;DHT22;1382;52.142;11.618;2023-02-11T06:25:48;9.10;61.70
2749;DHT22;1382;52.142;11.618;2023-02-11T06:28:15;9.20;61.70
2749;DHT22;1382;52.142;11.618;2023-02-11T06:30:42;9.10;61.30
2749;DHT22;1382;52.142;11.618;2023-02-11T06:33:09;9.30;61.60
2749;DHT22;1382;52.142;11.618;2023-02-11T06:35:37;9.20;61.80
2749;DHT22;1382;52.142;11.618;2023-02-11T06:38:05;9.20;61.90
2749;DHT22;1382;52.142;11.618;2023-02-11T06:40:32;9.20;61.90
2749;DHT22;1382;52.142;11.618;2023-02-11T06:42:59;9.10;61.50
2749;DHT22;1382;52.142;11.618;2023-02-11T06:45:25;9.20;61.80
2749;DHT22;1382;52.142;11.618;2023-02-11T06:47:52;9.20;61.90
2749;DHT22;1382;52.142;11.618;2023-02-11T06:50:19;9.20;61.90
2749;DHT22;1382;52.142;11.618;2023-02-11T06:52:46;9.20;61.60
2749;DHT22;1382;52.142;11.618;2023-02-11T06:55:14;9.20;62.00
2749;DHT22;1382;52.142;11.618;2023-02-11T06:57:40;9.20;62.30
2749;DHT22;1382;52.142;11.618;2023-02-11T07:00:08;9.20;62.30
2749;DHT22;1382;52.142;11.618;2023-02-11T07:02:35;9.20;61.70
2749;DHT22;1382;52.142;11.618;2023-02-11T07:05:03;9.20;62.30
2749;DHT22;1382;52.142;11.618;2023-02-11T07:07:30;9.20;62.00
2749;DHT22;1382;52.142;11.618;2023-02-11T07:09:59;9.20;62.10
2749;DHT22;1382;52.142;11.618;2023-02-11T07:12:27;9.20;62.00
2749;DHT22;1382;52.142;11.618;2023-02-11T07:14:55;9.20;62.20
2749;DHT22;1382;52.142;11.618;2023-02-11T07:17:22;9.20;62.20
2749;DHT22;1382;52.142;11.618;2023-02-11T07:19:48;9.20;62.40
2749;DHT22;1382;52.142;11.618;2023-02-11T07:22:15;9.20;62.50
2749;DHT22;1382;52.142;11.618;2023-02-11T07:24:42;9.30;62.70
2749;DHT22;1382;52.142;11.618;2023-02-11T07:27:09;9.30;62.60
2749;DHT22;1382;52.142;11.618;2023-02-11T07:29:37;9.30;62.60
2749;DHT22;1382;52.142;11.618;2023-02-11T07:32:04;9.20;62.60
2749;DHT22;1382;52.142;11.618;2023-02-11T07:34:31;9.30;62.90
2749;DHT22;1382;52.142;11.618;2023-02-11T07:36:58;9.30;62.80
2749;DHT22;1382;52.142;11.618;2023-02-11T07:39:25;9.30;63.10
2749;DHT22;1382;52.142;11.618;2023-02-11T07:41:52;9.30;63.30
2749;DHT22;1382;52.142;11.618;2023-02-11T07:44:18;9.30;63.40
2749;DHT22;1382;52.142;11.618;2023-02-11T07:46:47;9.30;63.60
2749;DHT22;1382;52.142;11.618;2023-02-11T07:49:13;9.30;63.60
2749;DHT22;1382;52.142;11.618;2023-02-11T07:51:40;9.30;63.50
2749;DHT22;1382;52.142;11.618;2023-02-11T07:54:09;9.30;63.70
2749;DHT22;1382;52.142;11.618;2023-02-11T07:56:35;9.30;63.60
2749;DHT22;1382;52.142;11.618;2023-02-11T07:59:03;9.30;63.90
2749;DHT22;1382;52.142;11.618;2023-02-11T08:01:29;9.40;63.50
2749;DHT22;1382;52.142;11.618;2023-02-11T08:03:59;9.40;63.40
2749;DHT22;1382;52.142;11.618;2023-02-11T08:06:28;9.40;63.60
2749;DHT22;1382;52.142;11.618;2023-02-11T08:08:55;9.40;63.70
2749;DHT22;1382;52.142;11.618;2023-02-11T08:11:23;9.40;63.60
2749;DHT22;1382;52.142;11.618;2023-02-11T08:13:51;9.50;63.80
2749;DHT22;1382;52.142;11.618;2023-02-11T08:16:20;9.50;63.70
2749;DHT22;1382;52.142;11.618;2023-02-11T08:18:48;9.50;63.70
2749;DHT22;1382;52.142;11.618;2023-02-11T08:21:17;9.50;63.50
2749;DHT22;1382;52.142;11.618;2023-02-11T08:23:44;9.50;63.40
2749;DHT22;1382;52.142;11.618;2023-02-11T08:26:13;9.50;63.30
2749;DHT22;1382;52.142;11.618;2023-02-11T08:28:42;9.60;63.50
2749;DHT22;1382;52.142;11.618;2023-02-11T08:31:10;9.60;63.60
2749;DHT22;1382;52.142;11.618;2023-02-11T08:33:37;9.60;63.30
2749;DHT22;1382;52.142;11.618;2023-02-11T08:36:07;9.60;63.00
2749;DHT22;1382;52.142;11.618;2023-02-11T08:38:35;9.60;63.40
2749;DHT22;1382;52.142;11.618;2023-02-11T08:41:02;9.70;63.40
2749;DHT22;1382;52.142;11.618;2023-02-11T08:43:29;9.70;63.50
2749;DHT22;1382;52.142;11.618;2023-02-11T08:45:56;9.70;63.50
2749;DHT22;1382;52.142;11.618;2023-02-11T08:48:27;9.70;63.70
2749;DHT22;1382;52.142;11.618;2023-02-11T08:50:53;9.70;63.80
2749;DHT22;1382;52.142;11.618;2023-02-11T08:53:20;9.70;63.80
2749;DHT22;1382;52.142;11.618;2023-02-11T08:55:49;9.70;63.80
2749;DHT22;1382;52.142;11.618;2023-02-11T08:58:16;9.70;63.60
2749;DHT22;1382;52.142;11.618;2023-02-11T09:00:45;9.70;63.80
2749;DHT22;1382;52.142;11.618;2023-02-11T09:03:12;9.70;63.50
2749;DHT22;1382;52.142;11.618;2023-02-11T09:05:41;9.80;63.60
2749;DHT22;1382;52.142;11.618;2023-02-11T09:08:08;9.80;63.20
2749;DHT22;1382;52.142;11.618;2023-02-11T09:10:35;9.80;63.30
2749;DHT22;1382;52.142;11.618;2023-02-11T09:13:03;9.80;63.10
2749;DHT22;1382;52.142;11.618;2023-02-11T09:15:30;9.90;63.10
2749;DHT22;1382;52.142;11.618;2023-02-11T09:17:57;9.90;63.50
2749;DHT22;1382;52.142;11.618;2023-02-11T09:20:24;10.00;62.20
2749;DHT22;1382;52.142;11.618;2023-02-11T09:22:51;10.00;62.30
2749;DHT22;1382;52.142;11.618;2023-02-11T09:25:18;10.00;62.20
2749;DHT22;1382;52.142;11.618;2023-02-11T09:27:45;10.00;62.10
2749;DHT22;1382;52.142;11.618;2023-02-11T09:30:13;10.00;62.10
2749;DHT22;1382;52.142;11.618;2023-02-11T09:32:40;10.10;62.10
2749;DHT22;1382;52.142;11.618;2023-02-11T09:35:07;10.10;62.00
2749;DHT22;1382;52.142;11.618;2023-02-11T09:37:34;10.10;62.10
2749;DHT22;1382;52.142;11.618;2023-02-11T09:40:03;10.20;62.20
2749;DHT22;1382;52.142;11.618;2023-02-11T09:42:41;10.10;62.30
2749;DHT22;1382;52.142;11.618;2023-02-11T09:45:14;10.20;62.20
2749;DHT22;1382;52.142;11.618;2023-02-11T09:47:47;10.20;62.20
2749;DHT22;1382;52.142;11.618;2023-02-11T09:50:18;10.20;62.40
2749;DHT22;1382;52.142;11.618;2023-02-11T09:52:51;10.30;62.30
2749;DHT22;1382;52.142;11.618;2023-02-11T09:55:23;10.20;62.40
2749;DHT22;1382;52.142;11.618;2023-02-11T09:57:52;10.30;62.60
2749;DHT22;1382;52.142;11.618;2023-02-11T10:00:23;10.30;62.60
2749;DHT22;1382;52.142;11.618;2023-02-11T10:02:59;10.40;62.40
2749;DHT22;1382;52.142;11.618;2023-02-11T10:05:36;10.40;62.20
2749;DHT22;1382;52.142;11.618;2023-02-11T10:08:17;10.30;62.00
2749;DHT22;1382;52.142;11.618;2023-02-11T10:10:49;10.30;61.80
2749;DHT22;1382;52.142;11.618;2023-02-11T10:13:29;10.40;62.00
2749;DHT22;1382;52.142;11.618;2023-02-11T10:16:07;10.40;62.10
2749;DHT22;1382;52.142;11.618;2023-02-11T10:18:49;10.50;62.10
2749;DHT22;1382;52.142;11.618;2023-02-11T10:21:28;10.50;61.90
2749;DHT22;1382;52.142;11.618;2023-02-11T10:24:00;10.50;61.80
2749;DHT22;1382;52.142;11.618;2023-02-11T10:26:30;10.60;62.00
2749;DHT22;1382;52.142;11.618;2023-02-11T10:29:00;10.60;61.80
2749;DHT22;1382;52.142;11.618;2023-02-11T10:31:34;10.60;61.90
2749;DHT22;1382;52.142;11.618;2023-02-11T10:34:05;10.60;61.70
2749;DHT22;1382;52.142;11.618;2023-02-11T10:36:34;10.60;61.80
2749;DHT22;1382;52.142;11.618;2023-02-11T10:39:01;10.70;61.90
2749;DHT22;1382;52.142;11.618;2023-02-11T10:41:37;10.70;62.00
2749;DHT22;1382;52.142;11.618;2023-02-11T10:44:06;10.90;62.50
2749;DHT22;1382;52.142;11.618;2023-02-11T10:46:36;10.70;62.40
2749;DHT22;1382;52.142;11.618;2023-02-11T10:49:03;10.70;62.00
2749;DHT22;1382;52.142;11.618;2023-02-11T10:51:30;10.70;62.50
2749;DHT22;1382;52.142;11.618;2023-02-11T10:54:10;10.80;62.60
2749;DHT22;1382;52.142;11.618;2023-02-11T10:56:43;10.80;62.50
2749;DHT22;1382;52.142;11.618;2023-02-11T10:59:16;10.80;62.60
2749;DHT22;1382;52.142;11.618;2023-02-11T11:01:50;10.80;62.60
2749;DHT22;1382;52.142;11.618;2023-02-11T11:04:33;10.80;62.70
2749;DHT22;1382;52.142;11.618;2023-02-11T11:07:11;10.90;62.90
2749;DHT22;1382;52.142;11.618;2023-02-11T11:09:44;10.90;62.90
2749;DHT22;1382;52.142;11.618;2023-02-11T11:12:28;10.90;63.00
2749;DHT22;1382;52.142;11.618;2023-02-11T11:14:56;10.90;62.90
2749;DHT22;1382;52.142;11.618;2023-02-11T11:17:25;11.10;62.90
2749;DHT22;1382;52.142;11.618;2023-02-11T11:19:52;11.00;62.90
2749;DHT22;1382;52.142;11.618;2023-02-11T11:22:20;11.00;62.90
2749;DHT22;1382;52.142;11.618;2023-02-11T11:24:48;11.00;62.70
2749;DHT22;1382;52.142;11.618;2023-02-11T11:27:17;11.10;62.90
2749;DHT22;1382;52.142;11.618;2023-02-11T11:29:47;11.10;62.90
2749;DHT22;1382;52.142;11.618;2023-02-11T11:32:18;11.10;62.90
2749;DHT22;1382;52.142;11.618;2023-02-11T11:34:50;11.10;62.80
2749;DHT22;1382;52.142;11.618;2023-02-11T11:37:20;11.10;62.70
2749;DHT22;1382;52.142;11.618;2023-02-11T11:39:54;11.10;62.70
2749;DHT22;1382;52.142;11.618;2023-02-11T11:42:25;11.20;62.90
2749;DHT22;1382;52.142;11.618;2023-02-11T11:44:57;11.20;62.80
2749;DHT22;1382;52.142;11.618;2023-02-11T11:47:28;11.20;62.60
2749;DHT22;1382;52.142;11.618;2023-02-11T11:50:12;11.20;62.70
2749;DHT22;1382;52.142;11.618;2023-02-11T11:52:45;11.30;62.90
2749;DHT22;1382;52.142;11.618;2023-02-11T11:55:18;11.20;62.90
2749;DHT22;1382;52.142;11.618;2023-02-11T11:57:47;11.20;62.70
2749;DHT22;1382;52.142;11.618;2023-02-11T12:00:20;11.20;63.00
2749;DHT22;1382;52.142;11.618;2023-02-11T12:03:03;11.30;63.80
2749;DHT22;1382;52.142;11.618;2023-02-11T12:05:36;11.40;63.10
2749;DHT22;1382;52.142;11.618;2023-02-11T12:08:13;11.30;63.10
2749;DHT22;1382;52.142;11.618;2023-02-11T12:10:56;11.30;63.10
2749;DHT22;1382;52.142;11.618;2023-02-11T12:13:37;11.30;63.00
2749;DHT22;1382;52.142;11.618;2023-02-11T12:16:12;11.30;63.10
2749;DHT22;1382;52.142;11.618;2023-02-11T12:21:42;11.40;63.10
2749;DHT22;1382;52.142;11.618;2023-02-11T12:24:22;11.40;63.00
2749;DHT22;1382;52.142;11.618;2023-02-11T12:26:55;11.40;63.10
2749;DHT22;1382;52.142;11.618;2023-02-11T12:29:29;11.40;63.10
2749;DHT22;1382;52.142;11.618;2023-02-11T12:32:06;11.40;63.10
2749;DHT22;1382;52.142;11.618;2023-02-11T12:34:57;11.40;63.10
2749;DHT22;1382;52.142;11.618;2023-02-11T12:37:38;11.40;63.20
2749;DHT22;1382;52.142;11.618;2023-02-11T12:40:14;11.30;63.50
2749;DHT22;1382;52.142;11.618;2023-02-11T12:43:02;11.30;63.60
2749;DHT22;1382;52.142;11.618;2023-02-11T12:45:40;11.30;63.50
2749;DHT22;1382;52.142;11.618;2023-02-11T12:48:20;11.40;63.60
2749;DHT22;1382;52.142;11.618;2023-02-11T12:50:55;11.30;63.50
2749;DHT22;1382;52.142;11.618;2023-02-11T12:53:44;11.40;63.50
2749;DHT22;1382;52.142;11.618;2023-02-11T12:56:19;11.40;63.50
2749;DHT22;1382;52.142;11.618;2023-02-11T12:58:50;11.40;63.80
2749;DHT22;1382;52.142;11.618;2023-02-11T13:01:19;11.40;63.80
2749;DHT22;1382;52.142;11.618;2023-02-11T13:03:51;11.50;63.90
2749;DHT22;1382;52.142;11.618;2023-02-11T13:06:23;11.40;63.80
2749;DHT22;1382;52.142;11.618;2023-02-11T13:08:54;11.40;63.80
2749;DHT22;1382;52.142;11.618;2023-02-11T13:11:28;11.40;63.80
2749;DHT22;1382;52.142;11.618;2023-02-11T13:13:59;11.40;63.80
2749;DHT22;1382;52.142;11.618;2023-02-11T13:16:34;11.50;63.80
2749;DHT22;1382;52.142;11.618;2023-02-11T13:19:06;11.60;64.00
2749;DHT22;1382;52.142;11.618;2023-02-11T13:21:48;11.40;63.70
2749;DHT22;1382;52.142;11.618;2023-02-11T13:24:24;11.50;63.80
2749;DHT22;1382;52.142;11.618;2023-02-11T13:26:58;11.60;63.70
2749;DHT22;1382;52.142;11.618;2023-02-11T13:29:34;11.60;63.70
2749;DHT22;1382;52.142;11.618;2023-02-11T13:32:07;11.60;63.70
2749;DHT22;1382;52.142;11.618;2023-02-11T13:34:54;11.60;63.80
2749;DHT22;1382;52.142;11.618;2023-02-11T13:37:23;11.70;63.70
2749;DHT22;1382;52.142;11.618;2023-02-11T13:39:57;11.60;63.90
2749;DHT22;1382;52.142;11.618;2023-02-11T13:42:24;11.70;64.00
2749;DHT22;1382;52.142;11.618;2023-02-11T13:44:52;11.70;64.00
2749;DHT22;1382;52.142;11.618;2023-02-11T13:47:25;11.70;63.90
2749;DHT22;1382;52.142;11.618;2023-02-11T13:49:52;11.80;63.80
2749;DHT22;1382;52.142;11.618;2023-02-11T13:52:23;11.80;63.80
2749;DHT22;1382;52.142;11.618;2023-02-11T13:54:52;12.00;63.90
2749;DHT22;1382;52.142;11.618;2023-02-11T13:57:39;11.80;63.60
2749;DHT22;1382;52.142;11.618;2023-02-11T14:03:31;11.90;63.30
2749;DHT22;1382;52.142;11.618;2023-02-11T14:06:11;11.90;63.30
2749;DHT22;1382;52.142;11.618;2023-02-11T14:08:58;11.90;63.50
2749;DHT22;1382;52.142;11.618;2023-02-11T14:11:48;11.90;63.40
2749;DHT22;1382;52.142;11.618;2023-02-11T14:14:20;11.90;63.20
2749;DHT22;1382;52.142;11.618;2023-02-11T14:17:27;11.90;63.40
2749;DHT22;1382;52.142;11.618;2023-02-11T14:19:54;12.00;63.10
2749;DHT22;1382;52.142;11.618;2023-02-11T14:22:24;12.10;63.60
2749;DHT22;1382;52.142;11.618;2023-02-11T14:24:53;12.10;63.60
2749;DHT22;1382;52.142;11.618;2023-02-11T14:27:34;11.90;63.40
2749;DHT22;1382;52.142;11.618;2023-02-11T14:30:25;12.00;63.30
2749;DHT22;1382;52.142;11.618;2023-02-11T14:33:17;12.00;63.30
2749;DHT22;1382;52.142;11.618;2023-02-11T14:35:54;12.00;63.40
2749;DHT22;1382;52.142;11.618;2023-02-11T14:38:27;11.90;63.60
2749;DHT22;1382;52.142;11.618;2023-02-11T14:41:04;11.90;63.50
2749;DHT22;1382;52.142;11.618;2023-02-11T14:43:37;12.00;63.50
2749;DHT22;1382;52.142;11.618;2023-02-11T14:46:07;12.00;63.40
2749;DHT22;1382;52.142;11.618;2023-02-11T14:48:36;12.00;63.30
2749;DHT22;1382;52.142;11.618;2023-02-11T14:51:08;12.00;63.30
2749;DHT22;1382;52.142;11.618;2023-02-11T14:53:36;12.10;63.30
2749;DHT22;1382;52.142;11.618;2023-02-11T14:56:16;12.20;63.30
2749;DHT22;1382;52.142;11.618;2023-02-11T14:58:46;12.20;63.00
2749;DHT22;1382;52.142;11.618;2023-02-11T15:01:26;12.10;63.00
2749;DHT22;1382;52.142;11.618;2023-02-11T15:03:53;12.20;62.90
2749;DHT22;1382;52.142;11.618;2023-02-11T15:06:21;12.20;63.10
2749;DHT22;1382;52.142;11.618;2023-02-11T15:08:51;12.20;62.90
2749;DHT22;1382;52.142;11.618;2023-02-11T15:11:21;12.20;62.80
2749;DHT22;1382;52.142;11.618;2023-02-11T15:13:49;12.20;62.80
2749;DHT22;1382;52.142;11.618;2023-02-11T15:16:19;12.20;62.80
2749;DHT22;1382;52.142;11.618;2023-02-11T15:18:51;12.20;62.80
2749;DHT22;1382;52.142;11.618;2023-02-11T15:21:23;12.20;62.80
2749;DHT22;1382;52.142;11.618;2023-02-11T15:23:55;12.20;62.90
2749;DHT22;1382;52.142;11.618;2023-02-11T15:26:22;12.20;62.80
2749;DHT22;1382;52.142;11.618;2023-02-11T15:28:49;12.20;62.80
2749;DHT22;1382;52.142;11.618;2023-02-11T15:31:18;12.20;62.90
2749;DHT22;1382;52.142;11.618;2023-02-11T15:33:45;12.20;62.90
2749;DHT22;1382;52.142;11.618;2023-02-11T15:36:14;12.20;63.10
2749;DHT22;1382;52.142;11.618;2023-02-11T15:38:41;12.10;63.10
2749;DHT22;1382;52.142;11.618;2023-02-11T15:41:33;12.10;63.20
2749;DHT22;1382;52.142;11.618;2023-02-11T15:44:00;12.20;63.00
2749;DHT22;1382;52.142;11.618;2023-02-11T15:46:35;12.10;63.30
2749;DHT22;1382;52.142;11.618;2023-02-11T15:49:03;12.10;63.30
2749;DHT22;1382;52.142;11.618;2023-02-11T15:51:33;12.10;63.50
2749;DHT22;1382;52.142;11.618;2023-02-11T15:54:03;12.10;63.40
2749;DHT22;1382;52.142;11.618;2023-02-11T15:56:35;12.10;63.40
2749;DHT22;1382;52.142;11.618;2023-02-11T15:59:09;12.10;63.50
2749;DHT22;1382;52.142;11.618;2023-02-11T16:01:40;12.00;63.60
2749;DHT22;1382;52.142;11.618;2023-02-11T16:04:15;12.00;63.60
2749;DHT22;1382;52.142;11.618;2023-02-11T16:06:43;12.00;63.60
2749;DHT22;1382;52.142;11.618;2023-02-11T16:09:23;12.00;63.60
2749;DHT22;1382;52.142;11.618;2023-02-11T16:11:55;12.10;63.50
2749;DHT22;1382;52.142;11.618;2023-02-11T16:14:26;12.00;63.60
2749;DHT22;1382;52.142;11.618;2023-02-11T16:16:55;12.10;63.70
2749;DHT22;1382;52.142;11.618;2023-02-11T16:19:25;12.00;63.60
2749;DHT22;1382;52.142;11.618;2023-02-11T16:21:55;12.00;63.50
2749;DHT22;1382;52.142;11.618;2023-02-11T16:24:26;12.00;63.40
2749;DHT22;1382;52.142;11.618;2023-02-11T16:26:54;12.00;63.30